createdAt,value
2022-10-02T00:02:26.007Z,1.70
2022-10-02T00:05:00.713Z,2.28
2022-10-02T00:07:34.658Z,1.80
2022-10-02T00:10:08.969Z,1.33
2022-10-02T00:12:36.084Z,1.70
2022-10-02T00:15:07.854Z,1.63
2022-10-02T00:17:38.748Z,1.95
2022-10-02T00:20:12.501Z,1.63
2022-10-02T00:22:49.710Z,1.60
2022-10-02T00:25:38.783Z,2.33
2022-10-02T00:28:23.232Z,1.45
2022-10-02T00:31:15.962Z,1.55
2022-10-02T00:33:46.717Z,1.77
2022-10-02T00:36:22.335Z,1.50
2022-10-02T00:39:07.163Z,1.83
2022-10-02T00:41:51.698Z,2.22
2022-10-02T00:44:38.432Z,1.77
2022-10-02T00:47:23.434Z,1.67
2022-10-02T00:49:58.978Z,1.60
2022-10-02T00:52:34.633Z,1.75
2022-10-02T00:55:26.731Z,1.90
2022-10-02T00:58:22.009Z,1.23
2022-10-02T01:00:59.684Z,1.40
2022-10-02T01:03:35.348Z,1.50
2022-10-02T01:06:02.021Z,2.00
2022-10-02T01:08:29.008Z,1.88
2022-10-02T01:10:55.738Z,1.85
2022-10-02T01:13:22.704Z,1.55
2022-10-02T01:15:53.027Z,1.65
2022-10-02T01:18:19.673Z,1.80
2022-10-02T01:20:49.162Z,1.70
2022-10-02T01:23:18.049Z,1.63
2022-10-02T01:25:44.987Z,1.20
2022-10-02T01:28:12.079Z,1.42
2022-10-02T01:30:41.968Z,1.85
2022-10-02T01:33:10.226Z,1.92
2022-10-02T01:35:38.683Z,1.80
2022-10-02T01:38:17.327Z,1.50
2022-10-02T01:40:44.106Z,2.22
2022-10-02T01:43:17.701Z,1.67
2022-10-02T01:46:25.314Z,2.13
2022-10-02T01:49:16.209Z,1.60
2022-10-02T01:52:01.149Z,1.85
2022-10-02T01:55:02.523Z,1.95
2022-10-02T01:57:47.473Z,1.70
2022-10-02T02:00:18.765Z,2.13
2022-10-02T02:02:58.488Z,1.77
2022-10-02T02:05:43.590Z,2.13
2022-10-02T02:08:19.274Z,2.22
2022-10-02T02:10:51.386Z,2.30
2022-10-02T02:13:26.805Z,1.48
2022-10-02T02:15:59.957Z,2.15
2022-10-02T02:18:40.024Z,1.65
2022-10-02T02:21:11.066Z,1.80
2022-10-02T02:23:38.377Z,2.00
2022-10-02T02:26:11.560Z,1.77
2022-10-02T02:28:41.366Z,2.00
2022-10-02T02:31:08.489Z,1.85
2022-10-02T02:33:41.251Z,1.50
2022-10-02T02:36:28.111Z,2.20
2022-10-02T02:39:06.187Z,1.83
2022-10-02T02:41:40.809Z,2.30
2022-10-02T02:44:17.617Z,1.80
2022-10-02T02:47:04.795Z,2.38
2022-10-02T02:49:38.058Z,1.90
2022-10-02T02:52:08.576Z,2.13
2022-10-02T02:54:39.145Z,1.67
2022-10-02T02:57:06.756Z,2.20
2022-10-02T02:59:35.822Z,1.90
2022-10-02T03:02:02.461Z,1.65
2022-10-02T03:04:29.096Z,1.95
2022-10-02T03:07:01.856Z,2.30
2022-10-02T03:09:30.157Z,1.70
2022-10-02T03:12:24.919Z,2.20
2022-10-02T03:15:14.709Z,2.17
2022-10-02T03:17:54.751Z,1.73
2022-10-02T03:20:40.137Z,1.70
2022-10-02T03:23:18.139Z,1.88
2022-10-02T03:25:44.697Z,1.70
2022-10-02T03:28:50.507Z,2.13
2022-10-02T03:31:14.873Z,1.60
2022-10-02T03:33:42.797Z,1.92
2022-10-02T03:36:11.820Z,1.95
2022-10-02T03:38:38.914Z,1.83
2022-10-02T03:41:05.607Z,1.77
2022-10-02T03:43:32.262Z,1.75
2022-10-02T03:45:58.853Z,2.25
2022-10-02T03:48:25.786Z,1.70
2022-10-02T03:50:52.326Z,1.92
2022-10-02T03:53:22.066Z,1.63
2022-10-02T03:55:54.770Z,2.00
2022-10-02T03:58:22.186Z,2.22
2022-10-02T04:00:48.851Z,1.85
2022-10-02T04:03:22.152Z,1.70
2022-10-02T04:05:52.724Z,1.45
2022-10-02T04:08:24.103Z,1.52
2022-10-02T04:11:00.404Z,1.63
2022-10-02T04:13:42.456Z,1.50
2022-10-02T04:16:33.451Z,1.40
2022-10-02T04:19:22.727Z,2.00
2022-10-02T04:21:55.285Z,2.05
2022-10-02T04:24:30.231Z,2.03
2022-10-02T04:27:23.278Z,1.75
2022-10-02T04:30:07.225Z,1.60
2022-10-02T04:32:36.317Z,2.13
2022-10-02T04:35:38.276Z,1.58
2022-10-02T04:38:23.362Z,2.33
2022-10-02T04:41:18.251Z,2.15
2022-10-02T04:43:54.023Z,1.30
2022-10-02T04:46:45.423Z,1.40
2022-10-02T04:49:31.621Z,1.50
2022-10-02T04:52:19.434Z,1.10
2022-10-02T04:54:52.039Z,1.58
2022-10-02T04:57:47.183Z,1.27
2022-10-02T05:00:18.798Z,1.40
2022-10-02T05:03:10.214Z,1.77
2022-10-02T05:05:39.572Z,1.98
2022-10-02T05:08:31.632Z,1.50
2022-10-02T05:11:13.291Z,1.35
2022-10-02T05:13:56.452Z,1.33
2022-10-02T05:16:52.089Z,1.17
2022-10-02T05:19:29.400Z,1.38
2022-10-02T05:22:14.960Z,1.30
2022-10-02T05:24:47.037Z,1.65
2022-10-02T05:27:28.037Z,1.40
2022-10-02T05:30:06.441Z,1.20
2022-10-02T05:32:44.736Z,2.30
2022-10-02T05:35:16.836Z,1.30
2022-10-02T05:38:12.625Z,1.40
2022-10-02T05:40:47.922Z,1.55
2022-10-02T05:43:43.005Z,1.25
2022-10-02T05:46:31.495Z,1.83
2022-10-02T05:49:00.243Z,1.55
2022-10-02T05:51:44.946Z,2.20
2022-10-02T05:54:33.393Z,1.75
2022-10-02T05:57:05.356Z,1.70
2022-10-02T05:59:35.452Z,1.58
2022-10-02T06:02:06.458Z,1.85
2022-10-02T06:04:44.272Z,1.58
2022-10-02T06:07:14.154Z,1.40
2022-10-02T06:09:44.993Z,1.85
2022-10-02T06:12:16.314Z,1.60
2022-10-02T06:14:51.075Z,2.17
2022-10-02T06:17:43.563Z,2.15
2022-10-02T06:20:18.854Z,1.67
2022-10-02T06:22:50.062Z,1.98
2022-10-02T06:25:48.770Z,1.60
2022-10-02T06:28:23.747Z,2.15
2022-10-02T06:31:02.401Z,1.50
2022-10-02T06:33:31.461Z,1.88
2022-10-02T06:36:01.088Z,1.92
2022-10-02T06:38:55.340Z,1.67
2022-10-02T06:41:33.874Z,1.52
2022-10-02T06:44:18.682Z,1.92
2022-10-02T06:47:03.978Z,2.60
2022-10-02T06:49:33.561Z,2.35
2022-10-02T06:52:27.786Z,2.10
2022-10-02T06:55:17.241Z,2.22
2022-10-02T06:57:43.775Z,2.13
2022-10-02T07:00:18.254Z,2.40
2022-10-02T07:03:16.789Z,1.65
2022-10-02T07:06:12.446Z,1.60
2022-10-02T07:09:07.921Z,2.20
2022-10-02T07:11:51.479Z,2.33
2022-10-02T07:14:23.931Z,2.45
2022-10-02T07:17:12.196Z,2.72
2022-10-02T07:19:45.566Z,2.72
2022-10-02T07:22:42.803Z,2.63
2022-10-02T07:25:27.891Z,2.55
2022-10-02T07:28:03.501Z,2.38
2022-10-02T07:30:38.255Z,2.30
2022-10-02T07:33:55.502Z,2.78
2022-10-02T07:36:40.134Z,2.50
2022-10-02T07:39:27.906Z,2.33
2022-10-02T07:42:12.195Z,2.63
2022-10-02T07:44:53.218Z,1.95
2022-10-02T07:47:36.215Z,2.72
2022-10-02T07:50:21.260Z,2.63
2022-10-02T07:53:06.477Z,3.13
2022-10-02T07:55:33.940Z,2.67
2022-10-02T07:58:05.321Z,2.50
2022-10-02T08:00:37.907Z,2.88
2022-10-02T08:03:15.061Z,2.70
2022-10-02T08:05:45.525Z,3.15
2022-10-02T08:08:23.831Z,3.22
2022-10-02T08:11:04.375Z,3.20
2022-10-02T08:13:39.843Z,2.53
2022-10-02T08:16:08.083Z,3.20
2022-10-02T08:18:40.033Z,2.90
2022-10-02T08:21:14.818Z,3.67
2022-10-02T08:23:48.628Z,3.20
2022-10-02T08:26:19.496Z,3.13
2022-10-02T08:29:34.895Z,3.13
2022-10-02T08:32:02.215Z,2.45
2022-10-02T08:34:28.969Z,3.42
2022-10-02T08:37:15.499Z,3.25
2022-10-02T08:40:01.690Z,3.55
2022-10-02T08:42:28.263Z,3.20
2022-10-02T08:44:54.781Z,3.17
2022-10-02T08:47:41.082Z,3.05
2022-10-02T08:50:35.550Z,2.95
2022-10-02T08:53:41.312Z,3.28
2022-10-02T08:56:30.821Z,3.45
2022-10-02T08:59:20.079Z,3.30
2022-10-02T09:02:01.391Z,3.70
2022-10-02T09:04:51.405Z,2.85
2022-10-02T09:07:39.728Z,3.67
2022-10-02T09:10:30.912Z,3.60
2022-10-02T09:13:11.078Z,3.17
2022-10-02T09:15:46.293Z,2.88
2022-10-02T09:18:20.709Z,2.90
2022-10-02T09:21:29.559Z,3.65
2022-10-02T09:24:16.807Z,3.03
2022-10-02T09:26:59.191Z,3.45
2022-10-02T09:30:03.325Z,3.00
2022-10-02T09:32:43.369Z,3.47
2022-10-02T09:35:34.206Z,3.28
2022-10-02T09:38:21.356Z,3.47
2022-10-02T09:41:33.206Z,3.70
2022-10-02T09:44:14.844Z,2.78
2022-10-02T09:46:49.470Z,3.95
2022-10-02T09:49:36.946Z,3.53
2022-10-02T09:52:42.995Z,3.42
2022-10-02T09:55:39.083Z,2.92
2022-10-02T09:58:24.177Z,2.55
2022-10-02T10:01:18.571Z,2.58
2022-10-02T10:04:20.614Z,2.67
2022-10-02T10:07:02.264Z,2.60
2022-10-02T10:09:56.145Z,2.97
2022-10-02T10:12:35.917Z,1.90
2022-10-02T10:15:29.977Z,2.25
2022-10-02T10:18:17.851Z,3.30
2022-10-02T10:21:02.498Z,2.83
2022-10-02T10:23:57.836Z,2.35
2022-10-02T10:26:36.389Z,2.45
2022-10-02T10:29:16.372Z,2.40
2022-10-02T10:32:07.015Z,2.13
2022-10-02T10:35:00.380Z,1.75
2022-10-02T10:38:14.664Z,2.15
2022-10-02T10:40:59.258Z,2.00
2022-10-02T10:43:53.526Z,1.80
2022-10-02T10:46:48.159Z,1.70
2022-10-02T10:49:35.316Z,1.98
2022-10-02T10:52:19.878Z,2.42
2022-10-02T10:54:53.550Z,2.15
2022-10-02T10:57:41.446Z,2.65
2022-10-02T11:00:21.561Z,2.65
2022-10-02T11:02:59.221Z,2.55
2022-10-02T11:05:37.613Z,2.53
2022-10-02T11:08:32.476Z,1.98
2022-10-02T11:11:17.119Z,2.50
2022-10-02T11:14:06.048Z,2.17
2022-10-02T11:16:49.141Z,2.53
2022-10-02T11:19:37.556Z,2.53
2022-10-02T11:22:38.047Z,2.72
2022-10-02T11:25:26.406Z,2.40
2022-10-02T11:28:23.280Z,2.58
2022-10-02T11:31:11.335Z,2.58
2022-10-02T11:33:49.582Z,2.40
2022-10-02T11:36:22.938Z,2.38
2022-10-02T11:38:52.127Z,2.20
2022-10-02T11:41:32.454Z,2.95
2022-10-02T11:44:02.022Z,2.60
2022-10-02T11:46:52.366Z,2.90
2022-10-02T11:49:34.471Z,2.40
2022-10-02T11:52:22.569Z,2.70
2022-10-02T11:54:54.802Z,2.25
2022-10-02T11:57:29.407Z,2.45
2022-10-02T12:00:05.720Z,2.25
2022-10-02T12:02:44.128Z,2.30
2022-10-02T12:05:30.510Z,2.55
2022-10-02T12:08:24.307Z,2.15
2022-10-02T12:11:12.266Z,2.15
2022-10-02T12:13:47.333Z,1.80
2022-10-02T12:16:31.838Z,2.00
2022-10-02T12:19:36.539Z,2.30
2022-10-02T12:22:44.979Z,2.55
2022-10-02T12:26:19.075Z,2.85
2022-10-02T12:28:56.194Z,2.35
2022-10-02T12:31:51.609Z,2.22
2022-10-02T12:34:59.214Z,2.47
2022-10-02T12:37:44.428Z,2.67
2022-10-02T12:40:31.927Z,2.33
2022-10-02T12:43:04.261Z,2.00
2022-10-02T12:45:44.133Z,2.28
2022-10-02T12:48:31.189Z,1.77
2022-10-02T12:51:35.653Z,2.22
2022-10-02T12:54:37.938Z,1.20
2022-10-02T12:57:38.127Z,1.58
2022-10-02T13:00:11.852Z,0.98
2022-10-02T13:03:01.251Z,1.48
2022-10-02T13:05:47.638Z,1.40
2022-10-02T13:08:29.114Z,1.42
2022-10-02T13:11:07.735Z,1.50
2022-10-02T13:13:49.629Z,1.40
2022-10-02T13:16:46.915Z,1.65
2022-10-02T13:19:32.897Z,1.20
2022-10-02T13:22:06.993Z,1.48
2022-10-02T13:24:36.484Z,1.50
2022-10-02T13:27:22.485Z,2.03
2022-10-02T13:30:13.831Z,1.80
2022-10-02T13:33:17.707Z,1.70
2022-10-02T13:35:45.980Z,1.52
2022-10-02T13:38:26.150Z,2.10
2022-10-02T13:41:14.747Z,1.50
2022-10-02T13:44:12.353Z,1.50
2022-10-02T13:46:55.115Z,1.17
2022-10-02T13:49:39.650Z,1.10
2022-10-02T13:52:38.421Z,1.50
2022-10-02T13:55:14.491Z,1.73
2022-10-02T13:58:03.852Z,1.23
2022-10-02T14:00:43.100Z,1.83
2022-10-02T14:03:24.724Z,1.80
2022-10-02T14:06:17.609Z,1.08
2022-10-02T14:09:21.760Z,1.15
2022-10-02T14:12:15.119Z,1.02
2022-10-02T14:15:13.715Z,1.83
2022-10-02T14:18:35.849Z,1.35
2022-10-02T14:21:26.594Z,1.15
2022-10-02T14:24:58.361Z,0.90
2022-10-02T14:27:43.196Z,1.10
2022-10-02T14:30:19.800Z,0.90
2022-10-02T14:32:50.444Z,0.90
2022-10-02T14:35:38.693Z,0.88
2022-10-02T14:38:39.441Z,1.00
2022-10-02T14:41:26.327Z,0.75
2022-10-02T14:44:23.391Z,1.10
2022-10-02T14:47:01.218Z,0.82
2022-10-02T14:49:36.392Z,1.30
2022-10-02T14:52:21.590Z,0.90
2022-10-02T14:54:57.421Z,1.02
2022-10-02T14:58:04.276Z,0.80
2022-10-02T15:00:44.175Z,0.82
2022-10-02T15:03:33.693Z,1.10
2022-10-02T15:06:06.480Z,1.10
2022-10-02T15:08:41.801Z,0.88
2022-10-02T15:11:21.186Z,1.17
2022-10-02T15:14:03.688Z,1.10
2022-10-02T15:17:06.914Z,0.95
2022-10-02T15:19:49.868Z,1.25
2022-10-02T15:22:20.339Z,0.85
2022-10-02T15:24:51.020Z,1.00
2022-10-02T15:27:27.095Z,1.33
2022-10-02T15:30:04.775Z,1.02
2022-10-02T15:32:52.776Z,0.93
2022-10-02T15:35:35.292Z,1.10
2022-10-02T15:38:17.119Z,1.25
2022-10-02T15:41:18.794Z,1.20
2022-10-02T15:43:54.473Z,0.77
2022-10-02T15:46:44.994Z,0.85
2022-10-02T15:49:43.242Z,1.45
2022-10-02T15:52:25.521Z,0.95
2022-10-02T15:55:06.040Z,1.35
2022-10-02T15:57:40.328Z,1.17
2022-10-02T16:00:16.448Z,1.95
2022-10-02T16:03:10.546Z,1.35
2022-10-02T16:05:48.041Z,1.63
2022-10-02T16:08:52.343Z,1.50
2022-10-02T16:11:25.227Z,1.00
2022-10-02T16:14:25.604Z,1.23
2022-10-02T16:17:16.192Z,1.08
2022-10-02T16:19:58.811Z,1.58
2022-10-02T16:22:41.883Z,1.25
2022-10-02T16:25:11.639Z,1.00
2022-10-02T16:27:52.219Z,1.48
2022-10-02T16:30:21.672Z,1.50
2022-10-02T16:33:11.214Z,1.73
2022-10-02T16:35:44.098Z,2.20
2022-10-02T16:38:41.079Z,1.60
2022-10-02T16:41:26.075Z,2.03
2022-10-02T16:44:18.943Z,1.40
2022-10-02T16:46:53.835Z,1.60
2022-10-02T16:49:45.873Z,1.60
2022-10-02T16:52:22.863Z,1.70
2022-10-02T16:55:04.635Z,1.42
2022-10-02T16:57:45.501Z,1.60
2022-10-02T17:00:37.792Z,1.33
2022-10-02T17:03:25.894Z,1.63
2022-10-02T17:06:18.061Z,1.13
2022-10-02T17:08:51.726Z,1.75
2022-10-02T17:11:26.277Z,2.03
2022-10-02T17:14:18.390Z,1.50
2022-10-02T17:16:52.269Z,1.42
2022-10-02T17:19:30.334Z,1.50
2022-10-02T17:22:09.740Z,1.40
2022-10-02T17:24:50.589Z,1.40
2022-10-02T17:27:45.398Z,1.58
2022-10-02T17:30:15.115Z,1.23
2022-10-02T17:32:53.373Z,1.60
2022-10-02T17:35:39.489Z,1.48
2022-10-02T17:38:32.171Z,2.17
2022-10-02T17:41:23.888Z,1.40
2022-10-02T17:44:33.448Z,1.58
2022-10-02T17:47:28.162Z,1.75
2022-10-02T17:50:00.600Z,1.92
2022-10-02T17:53:11.944Z,1.70
2022-10-02T17:56:22.370Z,1.55
2022-10-02T17:59:12.136Z,1.67
2022-10-02T18:01:48.352Z,1.42
2022-10-02T18:04:37.129Z,1.15
2022-10-02T18:07:15.578Z,1.85
2022-10-02T18:09:47.435Z,1.65
2022-10-02T18:12:45.040Z,2.28
2022-10-02T18:15:20.921Z,2.13
2022-10-02T18:17:57.044Z,1.50
2022-10-02T18:20:36.445Z,2.30
2022-10-02T18:23:22.787Z,1.80
2022-10-02T18:26:20.000Z,1.63
2022-10-02T18:29:23.888Z,2.00
2022-10-02T18:32:14.466Z,1.52
2022-10-02T18:34:59.454Z,2.30
2022-10-02T18:37:32.332Z,1.63
2022-10-02T18:40:25.577Z,1.83
2022-10-02T18:43:29.843Z,1.75
2022-10-02T18:46:20.902Z,1.50
2022-10-02T18:49:21.526Z,2.03
2022-10-02T18:52:16.786Z,2.35
2022-10-02T18:55:03.301Z,2.22
2022-10-02T18:57:45.779Z,1.73
2022-10-02T19:00:24.037Z,1.98
2022-10-02T19:03:22.232Z,2.40
2022-10-02T19:05:57.848Z,1.52
2022-10-02T19:08:31.592Z,1.77
2022-10-02T19:10:58.090Z,1.70
2022-10-02T19:13:27.189Z,1.98
2022-10-02T19:15:55.980Z,1.88
2022-10-02T19:18:29.879Z,1.63
2022-10-02T19:20:58.978Z,1.90
2022-10-02T19:23:46.337Z,2.03
2022-10-02T19:26:24.814Z,1.85
2022-10-02T19:28:59.240Z,1.80
2022-10-02T19:31:28.406Z,1.90
2022-10-02T19:34:04.165Z,1.88
2022-10-02T19:36:38.298Z,1.92
2022-10-02T19:39:07.917Z,1.90
2022-10-02T19:41:42.161Z,1.58
2022-10-02T19:44:20.738Z,1.80
2022-10-02T19:46:53.370Z,2.67
2022-10-02T19:49:25.491Z,1.80
2022-10-02T19:51:53.145Z,1.67
2022-10-02T19:54:24.637Z,1.77
2022-10-02T19:56:56.973Z,1.92
2022-10-02T19:59:27.879Z,1.80
2022-10-02T20:01:56.726Z,2.40
2022-10-02T20:04:25.786Z,1.60
2022-10-02T20:06:56.658Z,2.05
2022-10-02T20:09:27.750Z,2.00
2022-10-02T20:12:02.190Z,1.48
2022-10-02T20:14:33.229Z,1.77
2022-10-02T20:17:09.150Z,2.45
2022-10-02T20:19:46.117Z,2.83
2022-10-02T20:22:26.405Z,1.63
2022-10-02T20:25:14.755Z,2.03
2022-10-02T20:27:50.441Z,1.67
2022-10-02T20:30:19.334Z,2.50
2022-10-02T20:33:07.349Z,2.38
2022-10-02T20:35:40.352Z,2.22
2022-10-02T20:38:14.518Z,1.77
2022-10-02T20:40:44.830Z,1.92
2022-10-02T20:43:32.880Z,2.40
2022-10-02T20:46:20.855Z,2.75
2022-10-02T20:49:07.889Z,2.25
2022-10-02T20:51:54.249Z,2.40
2022-10-02T20:54:54.271Z,1.98
2022-10-02T20:58:06.509Z,2.15
2022-10-02T21:01:15.053Z,2.75
2022-10-02T21:04:09.615Z,2.10
2022-10-02T21:06:48.144Z,2.40
2022-10-02T21:09:51.059Z,2.70
2022-10-02T21:12:35.359Z,2.53
2022-10-02T21:15:28.695Z,2.03
2022-10-02T21:18:12.599Z,2.20
2022-10-02T21:20:55.759Z,2.13
2022-10-02T21:23:32.309Z,2.45
2022-10-02T21:26:04.994Z,2.10
2022-10-02T21:28:46.837Z,2.05
2022-10-02T21:31:19.515Z,2.63
2022-10-02T21:33:54.756Z,2.75
2022-10-02T21:36:23.049Z,2.58
2022-10-02T21:39:20.449Z,3.05
2022-10-02T21:42:17.561Z,2.35
2022-10-02T21:45:11.419Z,2.83
2022-10-02T21:48:06.686Z,2.45
2022-10-02T21:50:54.203Z,3.17
2022-10-02T21:53:58.637Z,2.35
2022-10-02T21:56:30.908Z,2.97
2022-10-02T21:59:16.172Z,2.65
2022-10-02T22:02:07.097Z,2.80
2022-10-02T22:04:45.082Z,2.55
2022-10-02T22:07:44.198Z,2.38
2022-10-02T22:10:27.443Z,3.25
2022-10-02T22:13:15.431Z,2.22
2022-10-02T22:15:57.146Z,2.20
2022-10-02T22:18:44.244Z,2.33
2022-10-02T22:21:25.648Z,2.65
2022-10-02T22:24:01.625Z,2.60
2022-10-02T22:26:36.869Z,2.63
2022-10-02T22:29:15.359Z,2.65
2022-10-02T22:31:50.544Z,2.47
2022-10-02T22:34:33.778Z,2.45
2022-10-02T22:37:30.601Z,1.85
2022-10-02T22:40:05.547Z,2.40
2022-10-02T22:42:41.774Z,2.63
2022-10-02T22:45:18.745Z,2.85
2022-10-02T22:47:57.387Z,2.92
2022-10-02T22:50:48.191Z,2.28
2022-10-02T22:53:58.249Z,2.55
2022-10-02T22:56:39.812Z,3.22
2022-10-02T22:59:16.864Z,2.90
2022-10-02T23:01:47.180Z,2.22
2022-10-02T23:04:24.021Z,3.28
2022-10-02T23:06:55.947Z,2.38
2022-10-02T23:09:23.159Z,2.67
2022-10-02T23:12:00.089Z,2.55
2022-10-02T23:14:37.608Z,2.85
2022-10-02T23:17:56.336Z,2.25
2022-10-02T23:20:50.318Z,2.60
2022-10-02T23:23:25.010Z,2.22
2022-10-02T23:26:05.120Z,2.42
2022-10-02T23:28:57.697Z,2.60
2022-10-02T23:31:34.125Z,2.53
2022-10-02T23:34:33.275Z,2.75
2022-10-02T23:37:13.700Z,2.72
2022-10-02T23:40:17.322Z,2.30
2022-10-02T23:42:53.045Z,2.53
2022-10-02T23:45:56.033Z,3.40
2022-10-02T23:48:23.266Z,3.15
2022-10-02T23:51:28.612Z,2.13
2022-10-02T23:57:30.063Z,3.80
